KCRS/CRS METAR and TAF weather

Enter ICAO airport designator
Station Type Date Time Source
KCRS METAR 2021/05/13 04:53 UTC NOAA

KCRS 130453Z AUTO 35004KT 9SM OVC024 16/14 A3030 RMK AO2 SLP259 T01560139


Station Type Date Time Source
KCRS Decoded METAR 2021/05/13 04:53 UTC NOAA

CORSICANA AIRFIELD, TX, United States (KCRS) 32-01N 96-23W 133M
May 13, 2021 - 12:53 AM EDT / 2021.05.13 0453 UTC
Wind: from the N (350 degrees) at 5 MPH (4 KT):0
Visibility: 9 mile(s):0
Sky conditions: overcast
Temperature: 60.1 F (15.6 C)
Dew Point: 57.0 F (13.9 C)
Relative Humidity: 89%
Pressure (altimeter): 30.3 in. Hg (1026 hPa)
ob: KCRS 130453Z AUTO 35004KT 9SM OVC024 16/14 A3030 RMK AO2 SLP259 T01560139
cycle: 5

Station Type Date Time Source
KCRS TAF UTC NOAA

Error!

Example: see airport list